Time;durP1;ratioP1;P1;durP2;ratioP2;P2;SDS_P1;SDS_P2;PMS_P1;PMS_P2;Temp;Humidity;BMP_temperature;BMP_pressure;BME280_temperature;BME280_humidity;BME280_pressure;Samples;Min_cycle;Max_cycle;Signal;HPM_P1;HPM_P2
2023/12/09 00:00:05;;;;;;;43.65;21.23;;;9.40;90.90;;;;;;2542941;28;20048;-76
2023/12/09 00:01:20;;;;;;;34.83;19.35;;;9.40;90.90;;;;;;2535111;28;20045;-78
2023/12/09 00:02:35;;;;;;;30.98;18.58;;;9.40;90.90;;;;;;2543458;28;20053;-76
2023/12/09 00:03:51;;;;;;;27.80;16.55;;;9.40;90.90;;;;;;2542927;28;20083;-77
2023/12/09 00:05:06;;;;;;;28.05;17.75;;;9.30;90.90;;;;;;2542702;28;20099;-78
2023/12/09 00:06:20;;;;;;;33.75;18.05;;;9.30;90.90;;;;;;2543736;28;20044;-77
2023/12/09 00:07:35;;;;;;;24.85;16.02;;;9.30;90.90;;;;;;2543301;28;20040;-76
2023/12/09 00:08:50;;;;;;;31.42;20.35;;;9.30;90.90;;;;;;2543537;28;20045;-78
2023/12/09 00:10:05;;;;;;;28.90;18.27;;;9.30;90.90;;;;;;2543699;28;20067;-75
2023/12/09 00:11:20;;;;;;;26.48;18.35;;;9.30;90.90;;;;;;2543194;28;20044;-78
2023/12/09 00:12:35;;;;;;;30.25;19.27;;;9.30;90.90;;;;;;2543602;28;20060;-77
2023/12/09 00:13:48;;;;;;;28.33;16.80;;;9.30;90.90;;;;;;2543297;28;20052;-78
2023/12/09 00:15:04;;;;;;;31.02;19.40;;;9.20;90.80;;;;;;2542903;28;20045;-78
2023/12/09 00:16:18;;;;;;;36.80;21.88;;;9.20;91.20;;;;;;2535575;28;20103;-78
2023/12/09 00:17:35;;;;;;;30.15;17.90;;;9.20;90.80;;;;;;2543579;28;20037;-78
2023/12/09 00:18:49;;;;;;;31.48;18.83;;;9.20;90.80;;;;;;2543456;28;20084;-78
2023/12/09 00:20:05;;;;;;;25.13;19.35;;;9.10;90.80;;;;;;2542791;28;20052;-78
2023/12/09 00:21:19;;;;;;;31.10;19.27;;;9.10;90.90;;;;;;2535539;28;20117;-78
2023/12/09 00:22:33;;;;;;;27.38;20.20;;;9.10;91.00;;;;;;2543828;28;20036;-77
2023/12/09 00:23:47;;;;;;;28.30;19.85;;;9.10;91.00;;;;;;2542943;28;20045;-76
2023/12/09 00:25:03;;;;;;;30.75;20.02;;;9.00;91.00;;;;;;2543456;28;20044;-78
2023/12/09 00:26:17;;;;;;;31.88;20.67;;;9.00;91.10;;;;;;2543128;28;20103;-78
2023/12/09 00:27:32;;;;;;;41.17;22.88;;;9.00;91.10;;;;;;2542775;28;20064;-78
2023/12/09 00:28:46;;;;;;;35.70;23.65;;;9.00;91.20;;;;;;2543495;28;20041;-79
2023/12/09 00:30:00;;;;;;;37.35;20.75;;;9.10;91.20;;;;;;2543292;28;20040;-78
2023/12/09 00:31:14;;;;;;;36.63;22.05;;;9.00;91.20;;;;;;2542601;28;20060;-76
2023/12/09 00:32:29;;;;;;;32.72;21.80;;;9.00;91.20;;;;;;2543399;28;20426;-77
2023/12/09 00:33:44;;;;;;;46.45;23.05;;;9.00;91.20;;;;;;2542976;28;20514;-78
2023/12/09 00:35:00;;;;;;;30.75;21.80;;;9.10;91.30;;;;;;2543241;28;20078;-78
2023/12/09 00:36:14;;;;;;;35.88;22.77;;;9.00;91.30;;;;;;2543005;28;20088;-78
2023/12/09 00:37:28;;;;;;;36.33;23.40;;;9.00;91.30;;;;;;2543422;28;20044;-78
2023/12/09 00:38:42;;;;;;;35.33;24.48;;;9.10;91.30;;;;;;2541397;28;20056;-79
2023/12/09 00:39:57;;;;;;;31.83;23.30;;;9.00;91.30;;;;;;2543489;28;20043;-77
2023/12/09 00:41:11;;;;;;;35.30;23.63;;;9.00;91.30;;;;;;2544270;28;20059;-78
2023/12/09 00:42:25;;;;;;;36.25;21.85;;;9.10;91.40;;;;;;2544079;28;20114;-76
2023/12/09 00:43:39;;;;;;;32.85;21.63;;;9.10;91.50;;;;;;2543603;28;20430;-78
2023/12/09 00:44:54;;;;;;;38.88;25.23;;;9.10;91.40;;;;;;2544207;28;20053;-77
2023/12/09 00:46:07;;;;;;;34.97;25.23;;;9.10;91.40;;;;;;2546634;28;20048;-76
2023/12/09 00:47:22;;;;;;;34.08;23.23;;;9.10;91.40;;;;;;2545905;28;20043;-78
2023/12/09 00:48:36;;;;;;;37.50;24.13;;;9.10;91.40;;;;;;2544789;28;20060;-78
2023/12/09 00:49:52;;;;;;;36.42;24.35;;;9.10;91.40;;;;;;2543959;28;20052;-78
2023/12/09 00:51:06;;;;;;;38.42;22.50;;;9.10;91.40;;;;;;2544402;28;20056;-78
2023/12/09 00:52:21;;;;;;;36.50;22.85;;;9.10;91.40;;;;;;2541508;28;20051;-78
2023/12/09 00:53:35;;;;;;;40.88;25.75;;;9.10;91.40;;;;;;2544887;28;20619;-77
2023/12/09 00:54:50;;;;;;;38.90;24.70;;;9.10;91.40;;;;;;2544912;28;20104;-78
2023/12/09 00:56:04;;;;;;;42.20;24.52;;;9.10;91.40;;;;;;2544745;28;20048;-78
2023/12/09 00:57:19;;;;;;;37.58;25.65;;;9.10;91.40;;;;;;2544855;28;20053;-78
2023/12/09 00:58:32;;;;;;;44.05;25.80;;;9.10;91.40;;;;;;2545246;28;20049;-77
2023/12/09 00:59:48;;;;;;;40.13;23.63;;;9.10;91.40;;;;;;2544701;28;20099;-78
2023/12/09 01:01:01;;;;;;;40.60;26.45;;;9.10;91.30;;;;;;2544884;28;20083;-78
2023/12/09 01:02:16;;;;;;;36.63;26.38;;;9.10;91.30;;;;;;2544721;28;20045;-78
2023/12/09 01:03:30;;;;;;;39.03;24.77;;;9.10;91.30;;;;;;2544373;28;20053;-78
2023/12/09 01:04:45;;;;;;;46.08;25.90;;;9.10;91.40;;;;;;2545492;28;20052;-77
2023/12/09 01:06:00;;;;;;;46.42;25.08;;;9.10;91.40;;;;;;2545275;28;20083;-77
2023/12/09 01:07:15;;;;;;;41.03;25.83;;;9.10;91.40;;;;;;2544642;28;20114;-78
2023/12/09 01:08:29;;;;;;;44.90;25.27;;;9.10;91.40;;;;;;2544575;28;20377;-78
2023/12/09 01:09:43;;;;;;;44.28;26.30;;;9.10;91.40;;;;;;2545034;28;20044;-78
2023/12/09 01:10:57;;;;;;;41.88;26.73;;;9.10;91.30;;;;;;2544951;28;20049;-77
2023/12/09 01:12:12;;;;;;;46.00;28.40;;;9.10;91.40;;;;;;2544974;28;20045;-77
2023/12/09 01:13:28;;;;;;;41.00;26.90;;;9.10;91.70;;;;;;2545297;28;20132;-78
2023/12/09 01:14:42;;;;;;;39.05;25.20;;;9.10;91.40;;;;;;2545447;28;20563;-77
2023/12/09 01:15:56;;;;;;;43.90;25.00;;;9.00;91.40;;;;;;2544677;28;20044;-79
2023/12/09 01:17:11;;;;;;;37.53;27.10;;;9.10;91.50;;;;;;2545393;28;20395;-78
2023/12/09 01:18:24;;;;;;;36.70;26.17;;;9.10;91.50;;;;;;2545311;28;20399;-78
2023/12/09 01:19:39;;;;;;;41.60;26.75;;;9.10;91.50;;;;;;2544203;28;20047;-78
2023/12/09 01:20:53;;;;;;;41.67;28.88;;;9.10;91.50;;;;;;2545440;28;20045;-79
2023/12/09 01:22:09;;;;;;;39.08;26.23;;;9.10;91.50;;;;;;2545145;28;20056;-78
2023/12/09 01:23:23;;;;;;;43.72;27.17;;;9.10;91.50;;;;;;2544901;28;20041;-77
2023/12/09 01:24:38;;;;;;;38.42;24.92;;;9.10;91.50;;;;;;2545232;28;20041;-77
2023/12/09 01:25:52;;;;;;;45.58;25.60;;;9.10;91.50;;;;;;2544871;28;20052;-77
2023/12/09 01:27:06;;;;;;;46.78;27.80;;;9.10;91.50;;;;;;2544789;28;20049;-79
2023/12/09 01:28:20;;;;;;;40.65;26.63;;;9.10;91.40;;;;;;2544684;28;20060;-78
2023/12/09 01:29:36;;;;;;;38.60;27.50;;;9.10;91.80;;;;;;2545109;28;20045;-77
2023/12/09 01:30:50;;;;;;;43.22;27.10;;;9.10;91.50;;;;;;2544816;28;20052;-79
2023/12/09 01:32:05;;;;;;;45.80;26.58;;;9.10;91.40;;;;;;2545014;28;20506;-76
2023/12/09 01:33:19;;;;;;;43.28;26.05;;;9.10;91.40;;;;;;2544903;28;20049;-78
2023/12/09 01:34:34;;;;;;;44.40;27.15;;;9.10;91.30;;;;;;2545530;28;20060;-78
2023/12/09 01:35:48;;;;;;;39.97;26.80;;;9.10;91.30;;;;;;2544710;28;20580;-79
2023/12/09 01:37:02;;;;;;;46.92;26.95;;;9.00;91.30;;;;;;2545359;28;20134;-79
2023/12/09 01:38:17;;;;;;;43.35;25.75;;;9.00;91.30;;;;;;2545270;28;20037;-78
2023/12/09 01:39:32;;;;;;;41.78;24.75;;;9.00;91.30;;;;;;2544951;28;20049;-79
2023/12/09 01:40:52;;;;;;;43.63;25.85;;;9.00;91.30;;;;;;2544679;28;20052;-77
2023/12/09 01:42:08;;;;;;;49.30;27.88;;;9.00;91.40;;;;;;2544490;28;20052;-76
2023/12/09 01:43:23;;;;;;;45.25;27.48;;;8.90;91.70;;;;;;2544671;28;20051;-78
2023/12/09 01:44:38;;;;;;;48.10;27.95;;;8.90;91.40;;;;;;2545780;28;20049;-77
2023/12/09 01:45:54;;;;;;;42.67;29.05;;;8.90;91.50;;;;;;2568897;22;20056;-84
2023/12/09 01:47:08;;;;;;;40.75;24.20;;;8.90;91.50;;;;;;2548511;28;20053;-84
2023/12/09 01:48:22;;;;;;;48.53;28.60;;;8.90;91.50;;;;;;2546363;28;20045;-84
2023/12/09 01:49:37;;;;;;;38.70;26.10;;;8.90;91.50;;;;;;2544255;28;20109;-84
2023/12/09 01:50:51;;;;;;;38.55;23.73;;;8.90;91.50;;;;;;2544785;28;20076;-84
2023/12/09 01:52:06;;;;;;;41.15;23.70;;;8.90;91.50;;;;;;2544286;28;20041;-84
2023/12/09 01:53:22;;;;;;;40.47;26.40;;;8.90;91.60;;;;;;2545026;28;20064;-84
2023/12/09 01:54:36;;;;;;;39.65;25.15;;;9.00;91.60;;;;;;2545804;28;20049;-84
2023/12/09 01:55:50;;;;;;;51.88;28.00;;;9.00;91.60;;;;;;2538299;28;20045;-83
2023/12/09 01:57:06;;;;;;;47.72;29.23;;;8.90;91.60;;;;;;2534613;28;20056;-84
2023/12/09 01:58:20;;;;;;;46.13;26.25;;;8.90;91.60;;;;;;2534548;28;20076;-84
2023/12/09 01:59:35;;;;;;;41.25;27.45;;;8.90;91.60;;;;;;2533816;28;20045;-84
2023/12/09 02:00:49;;;;;;;43.90;27.02;;;9.00;91.70;;;;;;2534889;28;20045;-84
2023/12/09 02:02:04;;;;;;;41.75;25.58;;;8.90;91.60;;;;;;2541785;28;20504;-84
2023/12/09 02:03:18;;;;;;;49.47;24.85;;;8.90;91.70;;;;;;2534200;28;20048;-84
2023/12/09 02:04:33;;;;;;;40.28;24.27;;;8.90;91.70;;;;;;2534492;28;20041;-84
2023/12/09 02:05:47;;;;;;;44.65;25.55;;;8.90;91.60;;;;;;2533614;28;20049;-84
2023/12/09 02:07:02;;;;;;;43.95;27.77;;;8.90;91.60;;;;;;2534153;28;20399;-84
2023/12/09 02:08:16;;;;;;;43.72;25.52;;;8.90;91.70;;;;;;2534172;28;20041;-85
2023/12/09 02:09:32;;;;;;;49.15;29.88;;;8.90;91.70;;;;;;2533775;28;22158;-84
2023/12/09 02:10:52;;;;;;;41.63;27.20;;;8.90;91.70;;;;;;2538802;28;20053;-84
2023/12/09 02:12:14;;;;;;;42.85;24.38;;;9.00;91.80;;;;;;2536642;28;20044;-84
2023/12/09 02:13:37;;;;;;;46.17;27.55;;;9.00;91.80;;;;;;2534580;28;20049;-84
2023/12/09 02:14:58;;;;;;;;;;;9.00;91.80;;;;;;2534779;28;20080;-84
2023/12/09 02:16:16;;;;;;;46.38;26.63;;;8.90;91.60;;;;;;2533317;28;19925;-85
2023/12/09 02:17:37;;;;;;;51.55;25.80;;;8.90;91.80;;;;;;2534513;28;20494;-84
2023/12/09 02:18:51;;;;;;;46.05;24.90;;;8.90;91.90;;;;;;2536896;28;20506;-84
2023/12/09 02:20:11;;;;;;;52.70;30.95;;;8.90;91.80;;;;;;2544534;28;20040;-84
2023/12/09 02:21:25;;;;;;;45.40;26.92;;;8.90;91.80;;;;;;2535902;28;20050;-84
2023/12/09 02:22:40;;;;;;;44.13;26.08;;;8.90;91.80;;;;;;2543425;28;20053;-84
2023/12/09 02:23:55;;;;;;;52.28;27.20;;;9.00;91.80;;;;;;2543240;28;20052;-84
2023/12/09 02:25:10;;;;;;;39.97;25.00;;;8.90;91.80;;;;;;2544169;28;20102;-84
2023/12/09 02:26:26;;;;;;;46.90;23.67;;;8.90;91.70;;;;;;2545309;28;20045;-84
2023/12/09 02:27:47;;;;;;;43.53;26.13;;;9.00;91.80;;;;;;2544162;28;20110;-84
2023/12/09 02:29:05;;;;;;;45.40;26.60;;;9.00;91.80;;;;;;2544599;28;20049;-84
2023/12/09 02:30:26;;;;;;;50.95;29.80;;;9.00;91.70;;;;;;2543451;28;20051;-84
2023/12/09 02:31:40;;;;;;;44.28;24.30;;;9.00;91.70;;;;;;2543021;28;20056;-84
2023/12/09 02:32:56;;;;;;;38.90;25.27;;;9.00;91.70;;;;;;2543240;28;20041;-84
2023/12/09 02:34:11;;;;;;;41.95;24.55;;;9.00;91.70;;;;;;2543815;28;20052;-84
2023/12/09 02:35:28;;;;;;;45.42;27.23;;;9.00;91.60;;;;;;2534757;28;20092;-84
2023/12/09 02:36:44;;;;;;;46.05;23.98;;;9.00;91.60;;;;;;2545142;28;20056;-84
2023/12/09 02:38:00;;;;;;;48.55;25.67;;;9.00;91.50;;;;;;2544435;28;20041;-84
2023/12/09 02:39:18;;;;;;;44.30;26.67;;;8.90;91.50;;;;;;2543851;28;20053;-84
2023/12/09 02:40:33;;;;;;;43.78;26.70;;;8.90;91.50;;;;;;2551826;28;20049;-83
2023/12/09 02:41:49;;;;;;;44.38;27.10;;;8.90;91.50;;;;;;2546013;28;20068;-83
2023/12/09 02:43:04;;;;;;;45.42;28.75;;;9.00;91.50;;;;;;2538488;28;20072;-83
2023/12/09 02:44:18;;;;;;;51.83;26.65;;;8.90;91.50;;;;;;2544868;28;20421;-83
2023/12/09 02:45:33;;;;;;;42.00;25.45;;;8.90;91.50;;;;;;2545196;28;20117;-83
2023/12/09 02:46:54;;;;;;;52.05;27.88;;;8.90;91.40;;;;;;2540821;28;20064;-83
2023/12/09 02:48:09;;;;;;;47.90;27.50;;;8.90;91.40;;;;;;2542733;28;20056;-83
2023/12/09 02:49:23;;;;;;;49.28;26.70;;;8.90;91.30;;;;;;2536955;28;20057;-83
2023/12/09 02:50:37;;;;;;;48.13;25.58;;;8.80;91.30;;;;;;2542139;28;20045;-83
2023/12/09 02:51:51;;;;;;;43.80;25.88;;;8.80;91.30;;;;;;2545005;28;20086;-83
2023/12/09 02:53:06;;;;;;;45.85;25.65;;;8.80;91.20;;;;;;2537172;28;20491;-83
2023/12/09 02:54:21;;;;;;;48.65;25.38;;;8.70;91.20;;;;;;2544594;28;20049;-83
2023/12/09 02:55:36;;;;;;;50.15;27.17;;;8.60;91.20;;;;;;2545392;28;20489;-83
2023/12/09 02:56:50;;;;;;;50.50;24.10;;;8.60;91.30;;;;;;2545700;28;20628;-84
2023/12/09 02:58:05;;;;;;;53.35;29.17;;;8.60;91.30;;;;;;2546039;28;20041;-84
2023/12/09 02:59:18;;;;;;;46.33;27.52;;;8.50;91.40;;;;;;2544460;28;20051;-85
2023/12/09 03:00:36;;;;;;;45.25;26.13;;;8.40;91.40;;;;;;2543502;28;20409;-84
2023/12/09 03:01:50;;;;;;;43.67;24.77;;;8.40;91.50;;;;;;2543757;28;20045;-85
2023/12/09 03:03:04;;;;;;;47.60;25.73;;;8.40;91.50;;;;;;2542106;28;20047;-85
2023/12/09 03:04:18;;;;;;;45.88;26.05;;;8.30;91.50;;;;;;2543059;28;20075;-85
2023/12/09 03:05:33;;;;;;;50.33;26.60;;;8.30;91.60;;;;;;2542691;28;20598;-85
2023/12/09 03:06:46;;;;;;;46.83;27.52;;;8.30;92.00;;;;;;2542802;28;20051;-85
2023/12/09 03:08:01;;;;;;;54.85;24.85;;;8.30;91.80;;;;;;2542078;28;20515;-84
2023/12/09 03:09:15;;;;;;;47.08;28.40;;;8.40;91.80;;;;;;2543045;28;20045;-85
2023/12/09 03:10:31;;;;;;;54.05;29.35;;;8.40;91.90;;;;;;2542923;28;20073;-85
2023/12/09 03:11:45;;;;;;;58.58;26.65;;;8.40;91.90;;;;;;2542087;28;20681;-84
2023/12/09 03:13:00;;;;;;;51.55;27.85;;;8.40;91.90;;;;;;2542897;28;20037;-85
2023/12/09 03:14:13;;;;;;;58.55;29.23;;;8.40;91.90;;;;;;2543229;28;20049;-84
2023/12/09 03:15:28;;;;;;;53.10;27.35;;;8.50;91.90;;;;;;2542591;28;20037;-84
2023/12/09 03:16:42;;;;;;;63.92;29.50;;;8.50;91.90;;;;;;2543646;28;20053;-84
2023/12/09 03:17:57;;;;;;;52.17;31.13;;;8.50;91.90;;;;;;2544055;28;20067;-84
2023/12/09 03:19:10;;;;;;;44.33;25.27;;;8.50;91.80;;;;;;2542636;28;20052;-85
2023/12/09 03:20:26;;;;;;;48.75;25.55;;;8.50;91.80;;;;;;2542998;28;20512;-85
2023/12/09 03:21:39;;;;;;;56.78;29.80;;;8.50;91.80;;;;;;2544223;28;20097;-84
2023/12/09 03:22:54;;;;;;;51.25;28.60;;;8.50;91.80;;;;;;2544249;28;20045;-85
2023/12/09 03:24:08;;;;;;;56.10;29.42;;;8.50;91.80;;;;;;2542960;28;20143;-84
2023/12/09 03:25:23;;;;;;;53.10;28.73;;;8.50;91.80;;;;;;2543271;28;20041;-85
2023/12/09 03:26:38;;;;;;;59.65;27.92;;;8.50;91.70;;;;;;2540408;28;20049;-85
2023/12/09 03:27:52;;;;;;;58.15;27.80;;;8.60;91.80;;;;;;2538941;28;20049;-84
2023/12/09 03:29:06;;;;;;;55.20;28.48;;;8.60;91.70;;;;;;2544244;28;20059;-84
2023/12/09 03:30:21;;;;;;;52.58;27.88;;;8.60;91.70;;;;;;2545524;28;20477;-84
2023/12/09 03:31:40;;;;;;;53.10;27.08;;;8.60;91.70;;;;;;2543430;28;20074;-84
2023/12/09 03:32:54;;;;;;;52.97;27.50;;;8.60;91.70;;;;;;2548159;28;20473;-84
2023/12/09 03:34:08;;;;;;;49.00;27.10;;;8.70;91.70;;;;;;2545259;28;20457;-85
2023/12/09 03:35:23;;;;;;;51.90;26.73;;;8.60;91.60;;;;;;2541655;28;20048;-84
2023/12/09 03:36:36;;;;;;;53.28;26.80;;;8.70;91.60;;;;;;2542840;28;20045;-84
2023/12/09 03:37:51;;;;;;;53.08;25.30;;;8.70;91.60;;;;;;2542624;28;20045;-85
2023/12/09 03:39:06;;;;;;;54.00;28.40;;;8.70;91.50;;;;;;2542103;28;20048;-85
2023/12/09 03:40:21;;;;;;;45.67;25.55;;;8.70;91.50;;;;;;2543166;28;20040;-84
2023/12/09 03:41:34;;;;;;;50.67;27.52;;;8.70;91.50;;;;;;2543455;28;20049;-84
2023/12/09 03:42:50;;;;;;;51.17;27.70;;;8.70;91.50;;;;;;2544829;28;20037;-85
2023/12/09 03:44:04;;;;;;;46.83;26.17;;;8.70;91.40;;;;;;2543664;28;20063;-85
2023/12/09 03:45:19;;;;;;;49.78;28.25;;;8.70;91.40;;;;;;2542161;28;20037;-84
2023/12/09 03:46:32;;;;;;;47.15;25.52;;;8.70;91.40;;;;;;2540597;28;20444;-84
2023/12/09 03:47:47;;;;;;;45.05;26.33;;;8.70;91.40;;;;;;2536462;28;20033;-85
2023/12/09 03:49:01;;;;;;;51.67;25.55;;;8.70;91.40;;;;;;2543998;28;20041;-85
2023/12/09 03:50:16;;;;;;;55.78;26.30;;;8.70;91.40;;;;;;2544152;28;20681;-85
2023/12/09 03:51:30;;;;;;;49.40;26.10;;;8.80;91.40;;;;;;2535398;28;20041;-84
2023/12/09 03:52:45;;;;;;;54.83;25.20;;;8.70;91.40;;;;;;2542997;28;20073;-84
2023/12/09 03:53:59;;;;;;;51.85;25.75;;;8.80;91.40;;;;;;2543116;28;20159;-84
2023/12/09 03:55:15;;;;;;;50.38;25.83;;;8.70;91.30;;;;;;2535601;28;20045;-83
2023/12/09 03:56:29;;;;;;;61.72;26.50;;;8.80;91.30;;;;;;2543645;28;20053;-84
2023/12/09 03:57:43;;;;;;;57.38;28.70;;;8.70;91.30;;;;;;2539448;28;20042;-84
2023/12/09 03:59:00;;;;;;;50.90;27.65;;;8.70;91.20;;;;;;2538873;28;20071;-84
2023/12/09 04:00:15;;;;;;;54.50;26.98;;;8.70;91.20;;;;;;2542658;28;20053;-84
2023/12/09 04:01:29;;;;;;;51.17;25.05;;;8.70;91.20;;;;;;2543037;28;20098;-84
2023/12/09 04:02:44;;;;;;;51.60;25.77;;;8.70;91.20;;;;;;2543617;28;20049;-84
2023/12/09 04:03:58;;;;;;;47.83;23.92;;;8.70;91.30;;;;;;2542490;28;20437;-84
2023/12/09 04:05:13;;;;;;;41.67;24.83;;;8.60;91.30;;;;;;2543231;28;20044;-84
2023/12/09 04:06:26;;;;;;;49.50;24.98;;;8.70;91.30;;;;;;2543799;28;20495;-84
2023/12/09 04:07:41;;;;;;;50.67;25.67;;;8.60;91.20;;;;;;2542464;28;20041;-84
2023/12/09 04:08:55;;;;;;;48.75;24.15;;;8.60;91.20;;;;;;2538184;28;20049;-85
2023/12/09 04:10:10;;;;;;;41.45;25.90;;;8.60;91.20;;;;;;2547224;28;20124;-84
2023/12/09 04:11:24;;;;;;;47.33;24.90;;;8.60;91.20;;;;;;2543934;28;20049;-84
2023/12/09 04:12:38;;;;;;;44.15;25.30;;;8.60;91.30;;;;;;2547140;28;20676;-84
2023/12/09 04:13:52;;;;;;;52.45;27.42;;;8.60;91.30;;;;;;2542924;28;20049;-84
2023/12/09 04:15:11;;;;;;;49.60;26.30;;;8.60;91.30;;;;;;2543683;28;20045;-84
2023/12/09 04:16:25;;;;;;;62.25;27.70;;;8.70;91.30;;;;;;2545274;28;20064;-84
2023/12/09 04:17:40;;;;;;;56.67;28.00;;;8.60;91.20;;;;;;2545141;28;20116;-84
2023/12/09 04:18:55;;;;;;;52.17;28.00;;;8.60;91.20;;;;;;2544593;28;20033;-85
2023/12/09 04:20:11;;;;;;;44.72;24.92;;;8.70;91.20;;;;;;2543758;28;20040;-85
2023/12/09 04:21:25;;;;;;;43.47;22.98;;;8.60;91.20;;;;;;2544192;28;20103;-85
2023/12/09 04:22:40;;;;;;;48.60;22.60;;;8.70;91.20;;;;;;2544257;28;20126;-85
2023/12/09 04:23:53;;;;;;;46.58;24.30;;;8.70;91.20;;;;;;2543818;28;20037;-84
2023/12/09 04:25:08;;;;;;;52.50;26.13;;;8.70;91.20;;;;;;2544545;28;20037;-85
2023/12/09 04:26:24;;;;;;;46.53;26.63;;;8.70;91.20;;;;;;2543933;28;20045;-85
2023/12/09 04:27:40;;;;;;;57.15;25.95;;;8.70;91.20;;;;;;2544146;28;20041;-84
2023/12/09 04:28:54;;;;;;;52.55;28.45;;;8.70;91.30;;;;;;2544919;28;20045;-85
2023/12/09 04:30:11;;;;;;;42.90;24.67;;;8.70;91.20;;;;;;2545135;28;20094;-84
2023/12/09 04:31:25;;;;;;;42.63;24.17;;;8.70;91.20;;;;;;2544055;28;20060;-84
2023/12/09 04:32:40;;;;;;;43.35;26.05;;;8.70;91.20;;;;;;2544843;28;20048;-84
2023/12/09 04:33:54;;;;;;;48.80;24.65;;;8.70;91.10;;;;;;2544524;28;20049;-84
2023/12/09 04:35:09;;;;;;;47.63;24.02;;;8.70;91.10;;;;;;2544364;28;20036;-84
2023/12/09 04:36:24;;;;;;;40.00;23.63;;;8.70;91.10;;;;;;2543924;28;20041;-85
2023/12/09 04:37:38;;;;;;;42.70;25.85;;;8.70;91.10;;;;;;2537273;28;20453;-85
2023/12/09 04:38:52;;;;;;;42.95;23.15;;;8.70;91.10;;;;;;2545727;28;20048;-85
2023/12/09 04:40:09;;;;;;;43.58;23.35;;;8.70;91.10;;;;;;2544690;28;20525;-85
2023/12/09 04:41:24;;;;;;;43.78;24.33;;;8.70;91.30;;;;;;2545486;28;20040;-85
2023/12/09 04:42:38;;;;;;;51.53;23.42;;;8.70;91.10;;;;;;2545085;28;20045;-85
2023/12/09 04:43:53;;;;;;;42.72;23.27;;;8.70;91.10;;;;;;2545073;28;20129;-84
2023/12/09 04:45:10;;;;;;;38.70;23.40;;;8.80;91.10;;;;;;2545452;28;20045;-85
2023/12/09 04:46:24;;;;;;;51.33;26.88;;;8.80;91.10;;;;;;2544394;28;20045;-85
2023/12/09 04:47:38;;;;;;;75.80;29.75;;;8.80;91.00;;;;;;2545625;28;20399;-84
2023/12/09 04:48:53;;;;;;;41.63;24.77;;;8.80;91.00;;;;;;2541023;28;20052;-84
2023/12/09 04:50:08;;;;;;;44.53;22.85;;;8.80;90.90;;;;;;2534653;28;20053;-84
2023/12/09 04:51:23;;;;;;;40.42;22.10;;;8.80;90.90;;;;;;2542178;28;20041;-85
2023/12/09 04:52:37;;;;;;;49.40;25.23;;;8.80;90.90;;;;;;2537071;28;20098;-84
2023/12/09 04:53:52;;;;;;;49.55;25.85;;;8.80;90.90;;;;;;2544277;28;20045;-84
2023/12/09 04:55:08;;;;;;;47.88;24.08;;;8.80;90.90;;;;;;2543705;28;20064;-84
2023/12/09 04:56:23;;;;;;;40.35;21.05;;;8.80;90.90;;;;;;2543807;28;20378;-84
2023/12/09 04:57:37;;;;;;;37.28;23.20;;;8.80;91.00;;;;;;2546199;28;20045;-84
2023/12/09 04:58:52;;;;;;;43.63;20.50;;;8.80;91.00;;;;;;2546041;28;20075;-84
2023/12/09 05:00:07;;;;;;;38.75;22.48;;;8.80;91.00;;;;;;2545319;28;20041;-84
2023/12/09 05:01:23;;;;;;;43.60;21.67;;;8.80;91.00;;;;;;2544511;28;20037;-84
2023/12/09 05:02:37;;;;;;;36.13;22.58;;;8.80;90.90;;;;;;2540509;28;20480;-84
2023/12/09 05:03:51;;;;;;;44.35;23.67;;;8.80;90.90;;;;;;2551999;28;20071;-85
2023/12/09 05:05:05;;;;;;;41.63;24.75;;;8.80;90.90;;;;;;2551428;28;20044;-85
2023/12/09 05:06:20;;;;;;;41.95;24.00;;;8.80;90.90;;;;;;2546388;28;20052;-85
2023/12/09 05:07:34;;;;;;;49.38;22.67;;;8.80;90.90;;;;;;2542059;28;20618;-85
2023/12/09 05:08:50;;;;;;;42.55;22.75;;;8.80;90.90;;;;;;2534778;28;20095;-85
2023/12/09 05:10:04;;;;;;;42.50;23.33;;;8.80;90.80;;;;;;2540246;28;20045;-85
2023/12/09 05:11:19;;;;;;;39.15;23.00;;;8.80;90.80;;;;;;2543524;28;20572;-86
2023/12/09 05:12:33;;;;;;;41.13;25.15;;;8.70;90.80;;;;;;2544402;28;20061;-85
2023/12/09 05:13:48;;;;;;;46.80;24.45;;;8.70;90.70;;;;;;2544082;28;20672;-85
2023/12/09 05:15:03;;;;;;;48.53;25.02;;;8.70;90.70;;;;;;2543487;28;20418;-85
2023/12/09 05:16:18;;;;;;;49.15;25.60;;;8.70;90.70;;;;;;2543848;28;20094;-85
2023/12/09 05:17:33;;;;;;;48.08;24.08;;;8.70;90.70;;;;;;2543954;28;20045;-85
2023/12/09 05:18:48;;;;;;;60.78;28.08;;;8.70;90.80;;;;;;2540705;28;20046;-85
2023/12/09 05:20:03;;;;;;;46.90;26.27;;;8.70;90.80;;;;;;2538548;28;20045;-85
2023/12/09 05:21:18;;;;;;;48.80;27.70;;;8.70;90.80;;;;;;2543387;28;20072;-85
2023/12/09 05:22:31;;;;;;;48.33;28.17;;;8.70;90.90;;;;;;2543914;28;20548;-84
2023/12/09 05:23:46;;;;;;;50.20;25.83;;;8.60;90.80;;;;;;2543770;28;20044;-85
2023/12/09 05:25:00;;;;;;;51.45;29.38;;;8.60;90.90;;;;;;2543900;28;20074;-85
2023/12/09 05:26:22;;;;;;;54.20;28.00;;;8.60;90.90;;;;;;2544047;28;20067;-85
2023/12/09 05:27:38;;;;;;;47.45;25.92;;;8.60;90.90;;;;;;2535734;28;20056;-85
2023/12/09 05:28:53;;;;;;;52.85;26.45;;;8.60;90.90;;;;;;2544106;28;20047;-85
2023/12/09 05:30:08;;;;;;;54.05;26.55;;;8.50;91.00;;;;;;2543858;28;20416;-85
2023/12/09 05:31:24;;;;;;;57.92;30.85;;;8.50;91.00;;;;;;2542915;28;20037;-85
2023/12/09 05:32:39;;;;;;;42.05;23.15;;;8.50;91.00;;;;;;2544557;28;20673;-85
2023/12/09 05:33:54;;;;;;;54.53;25.42;;;8.50;91.00;;;;;;2538381;28;20056;-85
2023/12/09 05:35:08;;;;;;;54.40;27.85;;;8.40;90.90;;;;;;2543724;28;20502;-85
2023/12/09 05:36:23;;;;;;;46.40;25.92;;;8.40;91.00;;;;;;2543788;28;20087;-85
2023/12/09 05:37:36;;;;;;;54.08;27.92;;;8.30;91.00;;;;;;2544379;28;20045;-85
2023/12/09 05:38:51;;;;;;;56.85;27.15;;;8.30;91.10;;;;;;2544176;28;20059;-85
2023/12/09 05:40:06;;;;;;;56.30;26.80;;;8.30;91.20;;;;;;2543393;28;20036;-85
2023/12/09 05:41:21;;;;;;;49.53;28.55;;;8.30;91.50;;;;;;2536022;28;20478;-85
2023/12/09 05:42:35;;;;;;;50.63;27.17;;;8.20;91.30;;;;;;2533937;28;20080;-85
2023/12/09 05:43:50;;;;;;;65.07;27.83;;;8.20;91.30;;;;;;2537675;28;20041;-84
2023/12/09 05:45:05;;;;;;;58.13;28.67;;;8.20;91.60;;;;;;2543953;28;20045;-84
2023/12/09 05:46:20;;;;;;;52.70;25.90;;;8.20;91.30;;;;;;2543525;28;20120;-85
2023/12/09 05:47:34;;;;;;;59.20;26.77;;;8.10;91.40;;;;;;2543891;28;20049;-85
2023/12/09 05:48:50;;;;;;;62.58;28.95;;;8.10;91.40;;;;;;2544481;28;20099;-85
2023/12/09 05:50:05;;;;;;;52.97;27.73;;;8.10;91.50;;;;;;2544837;28;20102;-85
2023/12/09 05:51:20;;;;;;;57.22;25.67;;;8.20;91.50;;;;;;2543095;28;20041;-85
2023/12/09 05:52:34;;;;;;;55.28;26.58;;;8.10;91.60;;;;;;2544508;28;20421;-85
2023/12/09 05:53:49;;;;;;;46.80;27.27;;;8.20;91.60;;;;;;2543980;28;20108;-85
2023/12/09 05:55:03;;;;;;;52.25;27.17;;;8.20;91.60;;;;;;2543425;28;20049;-85
2023/12/09 05:56:18;;;;;;;53.33;25.25;;;8.10;91.60;;;;;;2544734;28;20049;-84
2023/12/09 05:57:31;;;;;;;57.42;27.48;;;8.10;91.50;;;;;;2544747;28;20056;-85
2023/12/09 05:58:46;;;;;;;53.80;27.33;;;8.10;91.60;;;;;;2544344;28;20041;-84
2023/12/09 06:00:00;;;;;;;46.92;26.00;;;8.10;91.70;;;;;;2539924;28;20045;-84
2023/12/09 06:01:14;;;;;;;42.90;24.33;;;8.20;91.70;;;;;;2541803;28;20480;-84
2023/12/09 06:02:28;;;;;;;61.58;27.60;;;8.10;91.70;;;;;;2537182;28;20076;-85
2023/12/09 06:03:43;;;;;;;51.28;25.60;;;8.20;91.80;;;;;;2543429;28;20049;-84
2023/12/09 06:04:58;;;;;;;46.53;23.23;;;8.20;91.80;;;;;;2543835;28;20044;-84
2023/12/09 06:06:13;;;;;;;45.45;22.52;;;8.20;91.80;;;;;;2544241;28;20144;-84
2023/12/09 06:07:26;;;;;;;51.10;23.42;;;8.20;91.70;;;;;;2544594;28;20052;-85
2023/12/09 06:08:41;;;;;;;44.22;23.15;;;8.20;91.70;;;;;;2544549;28;20629;-84
2023/12/09 06:09:55;;;;;;;38.85;21.50;;;8.20;91.70;;;;;;2543244;28;20064;-86
2023/12/09 06:11:10;;;;;;;44.00;24.25;;;8.20;91.60;;;;;;2542953;28;20045;-85
2023/12/09 06:12:23;;;;;;;47.47;22.85;;;8.20;91.60;;;;;;2543177;28;20409;-84
2023/12/09 06:13:38;;;;;;;45.38;24.60;;;8.20;91.60;;;;;;2535090;28;20044;-85
2023/12/09 06:14:53;;;;;;;38.95;19.83;;;8.20;91.60;;;;;;2539315;28;20045;-85
2023/12/09 06:16:08;;;;;;;39.85;20.42;;;8.10;91.60;;;;;;2543566;28;20115;-84
2023/12/09 06:17:22;;;;;;;45.00;20.60;;;8.10;91.60;;;;;;2545884;28;20057;-85
2023/12/09 06:18:36;;;;;;;39.58;22.17;;;8.10;91.70;;;;;;2543474;28;20061;-85
2023/12/09 06:19:50;;;;;;;42.30;21.23;;;8.10;91.70;;;;;;2542871;28;20037;-85
2023/12/09 06:21:07;;;;;;;30.50;19.02;;;8.10;91.80;;;;;;2543819;28;20421;-84
2023/12/09 06:22:21;;;;;;;35.58;18.27;;;8.10;91.80;;;;;;2543078;28;20045;-85
2023/12/09 06:23:37;;;;;;;33.75;18.88;;;8.00;91.80;;;;;;2543047;28;20044;-85
2023/12/09 06:24:51;;;;;;;34.70;18.15;;;8.00;91.90;;;;;;2543139;28;20052;-84